sensor_id;sensor_type;location;lat;lon;timestamp;temperature;humidity
68354;DHT22;55274;43.060;25.618;2023-04-10T00:00:09;8.10;97.00
68354;DHT22;55274;43.060;25.618;2023-04-10T00:02:35;8.10;97.30
68354;DHT22;55274;43.060;25.618;2023-04-10T00:05:05;8.00;97.40
68354;DHT22;55274;43.060;25.618;2023-04-10T00:07:31;8.00;97.60
68354;DHT22;55274;43.060;25.618;2023-04-10T00:09:57;8.00;97.70
68354;DHT22;55274;43.060;25.618;2023-04-10T00:12:23;8.00;98.70
68354;DHT22;55274;43.060;25.618;2023-04-10T00:14:49;7.90;98.80
68354;DHT22;55274;43.060;25.618;2023-04-10T00:17:15;7.80;99.20
68354;DHT22;55274;43.060;25.618;2023-04-10T00:19:41;7.80;99.50
68354;DHT22;55274;43.060;25.618;2023-04-10T00:22:06;7.70;99.80
68354;DHT22;55274;43.060;25.618;2023-04-10T00:24:32;7.70;99.70
68354;DHT22;55274;43.060;25.618;2023-04-10T00:26:58;7.70;99.90
68354;DHT22;55274;43.060;25.618;2023-04-10T00:29:24;7.60;99.90
68354;DHT22;55274;43.060;25.618;2023-04-10T00:31:50;7.60;99.90
68354;DHT22;55274;43.060;25.618;2023-04-10T00:34:15;7.60;99.90
68354;DHT22;55274;43.060;25.618;2023-04-10T00:36:41;7.50;99.90
68354;DHT22;55274;43.060;25.618;2023-04-10T00:39:10;7.50;99.90
68354;DHT22;55274;43.060;25.618;2023-04-10T00:41:35;7.40;99.90
68354;DHT22;55274;43.060;25.618;2023-04-10T00:44:01;7.40;99.90
68354;DHT22;55274;43.060;25.618;2023-04-10T00:46:27;7.40;99.90
68354;DHT22;55274;43.060;25.618;2023-04-10T00:48:53;7.40;99.90
68354;DHT22;55274;43.060;25.618;2023-04-10T00:51:21;7.30;99.90
68354;DHT22;55274;43.060;25.618;2023-04-10T00:53:48;7.20;99.90
68354;DHT22;55274;43.060;25.618;2023-04-10T00:56:18;7.10;99.90
68354;DHT22;55274;43.060;25.618;2023-04-10T00:58:44;7.10;99.90
68354;DHT22;55274;43.060;25.618;2023-04-10T01:01:10;7.10;99.90
68354;DHT22;55274;43.060;25.618;2023-04-10T01:03:38;7.00;99.90
68354;DHT22;55274;43.060;25.618;2023-04-10T01:11:36;7.00;99.90
68354;DHT22;55274;43.060;25.618;2023-04-10T01:16:45;7.00;99.90
68354;DHT22;55274;43.060;25.618;2023-04-10T01:25:37;6.70;99.90
68354;DHT22;55274;43.060;25.618;2023-04-10T01:30:46;6.60;99.90
68354;DHT22;55274;43.060;25.618;2023-04-10T01:33:16;6.60;99.90
68354;DHT22;55274;43.060;25.618;2023-04-10T01:35:46;6.50;99.90
68354;DHT22;55274;43.060;25.618;2023-04-10T01:38:17;6.50;99.90
68354;DHT22;55274;43.060;25.618;2023-04-10T01:40:44;6.50;99.90
68354;DHT22;55274;43.060;25.618;2023-04-10T01:43:15;6.40;99.90
68354;DHT22;55274;43.060;25.618;2023-04-10T01:45:42;6.40;99.90
68354;DHT22;55274;43.060;25.618;2023-04-10T01:48:09;6.40;99.90
68354;DHT22;55274;43.060;25.618;2023-04-10T01:50:36;6.30;99.90
68354;DHT22;55274;43.060;25.618;2023-04-10T01:53:05;6.30;99.90
68354;DHT22;55274;43.060;25.618;2023-04-10T01:55:32;6.20;99.90
68354;DHT22;55274;43.060;25.618;2023-04-10T01:57:59;6.20;99.90
68354;DHT22;55274;43.060;25.618;2023-04-10T02:00:26;6.10;99.90
68354;DHT22;55274;43.060;25.618;2023-04-10T02:02:52;6.10;99.90
68354;DHT22;55274;43.060;25.618;2023-04-10T02:05:18;6.10;99.90
68354;DHT22;55274;43.060;25.618;2023-04-10T02:08:13;6.00;99.90
68354;DHT22;55274;43.060;25.618;2023-04-10T02:13:46;5.90;99.90
68354;DHT22;55274;43.060;25.618;2023-04-10T02:16:14;5.90;99.90
68354;DHT22;55274;43.060;25.618;2023-04-10T02:18:45;5.80;99.90
68354;DHT22;55274;43.060;25.618;2023-04-10T02:21:12;5.90;99.90
68354;DHT22;55274;43.060;25.618;2023-04-10T02:23:37;5.80;99.90
68354;DHT22;55274;43.060;25.618;2023-04-10T02:26:07;5.80;99.90
68354;DHT22;55274;43.060;25.618;2023-04-10T02:28:36;5.80;99.90
68354;DHT22;55274;43.060;25.618;2023-04-10T02:31:02;5.80;99.90
68354;DHT22;55274;43.060;25.618;2023-04-10T02:33:27;5.80;99.90
68354;DHT22;55274;43.060;25.618;2023-04-10T02:35:53;5.80;99.90
68354;DHT22;55274;43.060;25.618;2023-04-10T02:38:19;5.80;99.90
68354;DHT22;55274;43.060;25.618;2023-04-10T02:40:45;5.80;99.90
68354;DHT22;55274;43.060;25.618;2023-04-10T02:43:10;5.70;99.90
68354;DHT22;55274;43.060;25.618;2023-04-10T02:45:36;5.70;99.90
68354;DHT22;55274;43.060;25.618;2023-04-10T02:48:04;5.70;99.90
68354;DHT22;55274;43.060;25.618;2023-04-10T02:50:30;5.60;99.90
68354;DHT22;55274;43.060;25.618;2023-04-10T02:52:56;5.70;99.90
68354;DHT22;55274;43.060;25.618;2023-04-10T02:55:22;5.70;99.90
68354;DHT22;55274;43.060;25.618;2023-04-10T02:57:48;5.70;99.90
68354;DHT22;55274;43.060;25.618;2023-04-10T03:00:14;5.70;99.90
68354;DHT22;55274;43.060;25.618;2023-04-10T03:02:40;5.70;99.90
68354;DHT22;55274;43.060;25.618;2023-04-10T03:05:06;5.60;99.90
68354;DHT22;55274;43.060;25.618;2023-04-10T03:07:33;5.60;99.90
68354;DHT22;55274;43.060;25.618;2023-04-10T03:09:59;5.60;99.90
68354;DHT22;55274;43.060;25.618;2023-04-10T03:12:24;5.60;99.90
68354;DHT22;55274;43.060;25.618;2023-04-10T03:14:50;5.60;99.90
68354;DHT22;55274;43.060;25.618;2023-04-10T03:17:17;5.60;99.90
68354;DHT22;55274;43.060;25.618;2023-04-10T03:19:42;5.60;99.90
68354;DHT22;55274;43.060;25.618;2023-04-10T03:22:08;5.60;99.90
68354;DHT22;55274;43.060;25.618;2023-04-10T03:24:35;5.60;99.90
68354;DHT22;55274;43.060;25.618;2023-04-10T03:27:02;5.60;99.90
68354;DHT22;55274;43.060;25.618;2023-04-10T03:29:28;5.60;99.90
68354;DHT22;55274;43.060;25.618;2023-04-10T03:31:54;5.60;99.90
68354;DHT22;55274;43.060;25.618;2023-04-10T03:34:20;5.60;99.90
68354;DHT22;55274;43.060;25.618;2023-04-10T03:36:46;5.60;99.90
68354;DHT22;55274;43.060;25.618;2023-04-10T03:39:12;5.60;99.90
68354;DHT22;55274;43.060;25.618;2023-04-10T03:41:38;5.60;99.90
68354;DHT22;55274;43.060;25.618;2023-04-10T03:44:03;5.60;99.90
68354;DHT22;55274;43.060;25.618;2023-04-10T03:46:29;5.60;99.90
68354;DHT22;55274;43.060;25.618;2023-04-10T03:48:55;5.50;99.90
68354;DHT22;55274;43.060;25.618;2023-04-10T03:51:21;5.50;99.90
68354;DHT22;55274;43.060;25.618;2023-04-10T03:53:50;5.40;99.90
68354;DHT22;55274;43.060;25.618;2023-04-10T03:56:16;5.40;99.90
68354;DHT22;55274;43.060;25.618;2023-04-10T03:58:42;5.40;99.90
68354;DHT22;55274;43.060;25.618;2023-04-10T04:01:07;5.40;99.90
68354;DHT22;55274;43.060;25.618;2023-04-10T04:03:33;5.40;99.90
68354;DHT22;55274;43.060;25.618;2023-04-10T04:05:59;5.40;99.90
68354;DHT22;55274;43.060;25.618;2023-04-10T04:08:25;5.50;99.90
68354;DHT22;55274;43.060;25.618;2023-04-10T04:10:51;5.50;99.90
68354;DHT22;55274;43.060;25.618;2023-04-10T04:13:17;5.50;99.90
68354;DHT22;55274;43.060;25.618;2023-04-10T04:15:42;5.50;99.90
68354;DHT22;55274;43.060;25.618;2023-04-10T04:18:08;5.50;99.90
68354;DHT22;55274;43.060;25.618;2023-04-10T04:20:35;5.50;99.90
68354;DHT22;55274;43.060;25.618;2023-04-10T04:23:00;5.50;99.90
68354;DHT22;55274;43.060;25.618;2023-04-10T04:25:26;5.60;99.90
68354;DHT22;55274;43.060;25.618;2023-04-10T04:27:52;5.60;99.90
68354;DHT22;55274;43.060;25.618;2023-04-10T04:30:18;5.60;99.90
68354;DHT22;55274;43.060;25.618;2023-04-10T04:32:43;5.70;99.90
68354;DHT22;55274;43.060;25.618;2023-04-10T04:35:09;5.80;99.90
68354;DHT22;55274;43.060;25.618;2023-04-10T04:37:35;5.90;99.90
68354;DHT22;55274;43.060;25.618;2023-04-10T04:40:01;6.00;99.90
68354;DHT22;55274;43.060;25.618;2023-04-10T04:42:27;6.10;99.90
68354;DHT22;55274;43.060;25.618;2023-04-10T04:44:53;6.10;99.90
68354;DHT22;55274;43.060;25.618;2023-04-10T04:47:19;6.20;99.90
68354;DHT22;55274;43.060;25.618;2023-04-10T04:49:45;6.30;99.90
68354;DHT22;55274;43.060;25.618;2023-04-10T04:52:11;6.30;99.90
68354;DHT22;55274;43.060;25.618;2023-04-10T04:54:36;6.30;99.90
68354;DHT22;55274;43.060;25.618;2023-04-10T04:57:02;6.40;99.90
68354;DHT22;55274;43.060;25.618;2023-04-10T04:59:28;6.60;99.90
68354;DHT22;55274;43.060;25.618;2023-04-10T05:01:54;7.10;99.90
68354;DHT22;55274;43.060;25.618;2023-04-10T05:04:20;7.50;99.90
68354;DHT22;55274;43.060;25.618;2023-04-10T05:06:45;7.60;99.90
68354;DHT22;55274;43.060;25.618;2023-04-10T05:09:11;8.00;99.90
68354;DHT22;55274;43.060;25.618;2023-04-10T05:11:37;8.20;99.90
68354;DHT22;55274;43.060;25.618;2023-04-10T05:14:03;8.30;99.90
68354;DHT22;55274;43.060;25.618;2023-04-10T05:16:29;8.50;99.90
68354;DHT22;55274;43.060;25.618;2023-04-10T05:18:55;8.50;99.90
68354;DHT22;55274;43.060;25.618;2023-04-10T05:21:20;8.40;99.90
68354;DHT22;55274;43.060;25.618;2023-04-10T05:23:46;8.40;99.90
68354;DHT22;55274;43.060;25.618;2023-04-10T05:26:12;8.40;99.90
68354;DHT22;55274;43.060;25.618;2023-04-10T05:28:37;8.40;99.90
68354;DHT22;55274;43.060;25.618;2023-04-10T05:31:03;8.40;99.90
68354;DHT22;55274;43.060;25.618;2023-04-10T05:33:29;8.40;99.90
68354;DHT22;55274;43.060;25.618;2023-04-10T05:35:55;8.40;99.90
68354;DHT22;55274;43.060;25.618;2023-04-10T05:38:21;8.40;99.90
68354;DHT22;55274;43.060;25.618;2023-04-10T05:40:47;8.40;99.90
68354;DHT22;55274;43.060;25.618;2023-04-10T05:43:12;8.50;99.90
68354;DHT22;55274;43.060;25.618;2023-04-10T05:45:39;8.60;99.90
68354;DHT22;55274;43.060;25.618;2023-04-10T05:48:08;8.70;99.90
68354;DHT22;55274;43.060;25.618;2023-04-10T05:50:34;8.80;99.90
68354;DHT22;55274;43.060;25.618;2023-04-10T05:53:00;8.80;99.90
68354;DHT22;55274;43.060;25.618;2023-04-10T05:55:26;8.90;99.90
68354;DHT22;55274;43.060;25.618;2023-04-10T05:57:51;9.00;99.90
68354;DHT22;55274;43.060;25.618;2023-04-10T06:00:18;9.20;99.90
68354;DHT22;55274;43.060;25.618;2023-04-10T06:02:44;9.40;99.90
68354;DHT22;55274;43.060;25.618;2023-04-10T06:05:10;9.60;99.90
68354;DHT22;55274;43.060;25.618;2023-04-10T06:07:36;9.80;99.90
68354;DHT22;55274;43.060;25.618;2023-04-10T06:10:02;10.20;99.90
68354;DHT22;55274;43.060;25.618;2023-04-10T06:12:28;10.50;99.20
68354;DHT22;55274;43.060;25.618;2023-04-10T06:14:53;10.60;98.70
68354;DHT22;55274;43.060;25.618;2023-04-10T06:17:19;10.70;98.30
68354;DHT22;55274;43.060;25.618;2023-04-10T06:19:45;10.80;97.40
68354;DHT22;55274;43.060;25.618;2023-04-10T06:22:11;10.90;96.10
68354;DHT22;55274;43.060;25.618;2023-04-10T06:24:37;10.90;95.50
68354;DHT22;55274;43.060;25.618;2023-04-10T06:27:03;11.10;95.60
68354;DHT22;55274;43.060;25.618;2023-04-10T06:29:29;11.20;94.80
68354;DHT22;55274;43.060;25.618;2023-04-10T06:31:54;11.50;94.60
68354;DHT22;55274;43.060;25.618;2023-04-10T06:34:20;11.70;93.80
68354;DHT22;55274;43.060;25.618;2023-04-10T06:36:46;11.90;92.60
68354;DHT22;55274;43.060;25.618;2023-04-10T06:39:12;12.00;92.30
68354;DHT22;55274;43.060;25.618;2023-04-10T06:41:38;12.20;91.90
68354;DHT22;55274;43.060;25.618;2023-04-10T06:44:03;12.30;92.00
68354;DHT22;55274;43.060;25.618;2023-04-10T06:46:29;12.60;91.70
68354;DHT22;55274;43.060;25.618;2023-04-10T06:48:55;12.90;90.20
68354;DHT22;55274;43.060;25.618;2023-04-10T06:51:21;13.30;89.20
68354;DHT22;55274;43.060;25.618;2023-04-10T06:53:46;13.70;87.90
68354;DHT22;55274;43.060;25.618;2023-04-10T06:56:12;13.90;85.70
68354;DHT22;55274;43.060;25.618;2023-04-10T06:58:38;13.90;84.40
68354;DHT22;55274;43.060;25.618;2023-04-10T07:01:04;14.10;84.20
68354;DHT22;55274;43.060;25.618;2023-04-10T07:03:30;14.50;83.00
68354;DHT22;55274;43.060;25.618;2023-04-10T07:05:57;14.60;81.20
68354;DHT22;55274;43.060;25.618;2023-04-10T07:08:23;14.70;79.80
68354;DHT22;55274;43.060;25.618;2023-04-10T07:10:48;14.70;80.00
68354;DHT22;55274;43.060;25.618;2023-04-10T07:13:14;14.60;79.80
68354;DHT22;55274;43.060;25.618;2023-04-10T07:15:40;14.50;78.70
68354;DHT22;55274;43.060;25.618;2023-04-10T07:18:06;14.50;79.00
68354;DHT22;55274;43.060;25.618;2023-04-10T07:20:32;14.50;78.10
68354;DHT22;55274;43.060;25.618;2023-04-10T07:22:57;14.60;77.60
68354;DHT22;55274;43.060;25.618;2023-04-10T07:25:23;14.90;77.60
68354;DHT22;55274;43.060;25.618;2023-04-10T07:27:49;15.00;76.00
68354;DHT22;55274;43.060;25.618;2023-04-10T07:30:15;15.40;75.90
68354;DHT22;55274;43.060;25.618;2023-04-10T07:32:40;15.50;73.50
68354;DHT22;55274;43.060;25.618;2023-04-10T07:35:07;15.70;74.00
68354;DHT22;55274;43.060;25.618;2023-04-10T07:37:33;16.10;72.60
68354;DHT22;55274;43.060;25.618;2023-04-10T07:39:58;16.20;71.10
68354;DHT22;55274;43.060;25.618;2023-04-10T07:42:25;16.60;65.40
68354;DHT22;55274;43.060;25.618;2023-04-10T07:44:51;16.90;61.80
68354;DHT22;55274;43.060;25.618;2023-04-10T07:47:16;16.80;58.70
68354;DHT22;55274;43.060;25.618;2023-04-10T07:49:42;16.50;60.70
68354;DHT22;55274;43.060;25.618;2023-04-10T07:52:08;16.40;61.10
68354;DHT22;55274;43.060;25.618;2023-04-10T07:54:34;16.50;61.40
68354;DHT22;55274;43.060;25.618;2023-04-10T07:57:00;17.00;60.70
68354;DHT22;55274;43.060;25.618;2023-04-10T07:59:27;17.00;58.70
68354;DHT22;55274;43.060;25.618;2023-04-10T08:01:53;17.10;58.20
68354;DHT22;55274;43.060;25.618;2023-04-10T08:04:19;16.90;58.10
68354;DHT22;55274;43.060;25.618;2023-04-10T08:06:45;16.90;58.10
68354;DHT22;55274;43.060;25.618;2023-04-10T08:09:11;16.90;59.00
68354;DHT22;55274;43.060;25.618;2023-04-10T08:11:37;17.00;58.70
68354;DHT22;55274;43.060;25.618;2023-04-10T08:14:02;17.20;57.20
68354;DHT22;55274;43.060;25.618;2023-04-10T08:16:31;17.20;56.20
68354;DHT22;55274;43.060;25.618;2023-04-10T08:18:58;17.20;57.60
68354;DHT22;55274;43.060;25.618;2023-04-10T08:21:25;17.10;56.70
68354;DHT22;55274;43.060;25.618;2023-04-10T08:23:53;16.90;56.70
68354;DHT22;55274;43.060;25.618;2023-04-10T08:26:19;16.70;57.60
68354;DHT22;55274;43.060;25.618;2023-04-10T08:28:51;16.70;57.40
68354;DHT22;55274;43.060;25.618;2023-04-10T08:31:18;16.50;57.40
68354;DHT22;55274;43.060;25.618;2023-04-10T08:33:44;16.90;57.80
68354;DHT22;55274;43.060;25.618;2023-04-10T08:36:10;17.20;56.80
68354;DHT22;55274;43.060;25.618;2023-04-10T08:38:38;17.50;56.10
68354;DHT22;55274;43.060;25.618;2023-04-10T08:41:04;17.70;56.60
68354;DHT22;55274;43.060;25.618;2023-04-10T08:43:30;17.70;55.90
68354;DHT22;55274;43.060;25.618;2023-04-10T08:45:58;17.90;55.40
68354;DHT22;55274;43.060;25.618;2023-04-10T08:48:44;18.20;55.10
68354;DHT22;55274;43.060;25.618;2023-04-10T08:51:16;18.00;54.90
68354;DHT22;55274;43.060;25.618;2023-04-10T08:53:43;17.80;56.40
68354;DHT22;55274;43.060;25.618;2023-04-10T08:56:12;18.10;56.30
68354;DHT22;55274;43.060;25.618;2023-04-10T08:58:41;18.50;54.90
68354;DHT22;55274;43.060;25.618;2023-04-10T09:01:08;19.00;54.70
68354;DHT22;55274;43.060;25.618;2023-04-10T09:03:37;19.40;52.90
68354;DHT22;55274;43.060;25.618;2023-04-10T09:06:04;19.40;52.50
68354;DHT22;55274;43.060;25.618;2023-04-10T09:08:31;19.60;54.30
68354;DHT22;55274;43.060;25.618;2023-04-10T09:10:57;19.20;52.90
68354;DHT22;55274;43.060;25.618;2023-04-10T09:13:42;19.20;52.20
68354;DHT22;55274;43.060;25.618;2023-04-10T09:16:10;19.40;51.20
68354;DHT22;55274;43.060;25.618;2023-04-10T09:21:10;19.00;52.10
68354;DHT22;55274;43.060;25.618;2023-04-10T09:23:36;18.90;51.70
68354;DHT22;55274;43.060;25.618;2023-04-10T09:28:55;18.60;53.80
68354;DHT22;55274;43.060;25.618;2023-04-10T09:31:35;18.60;52.80
68354;DHT22;55274;43.060;25.618;2023-04-10T09:36:33;19.10;52.50
68354;DHT22;55274;43.060;25.618;2023-04-10T09:38:58;18.90;52.90
68354;DHT22;55274;43.060;25.618;2023-04-10T09:41:25;19.10;52.20
68354;DHT22;55274;43.060;25.618;2023-04-10T09:44:05;19.10;51.60
68354;DHT22;55274;43.060;25.618;2023-04-10T09:46:32;18.80;51.20
68354;DHT22;55274;43.060;25.618;2023-04-10T09:48:58;18.40;52.60
68354;DHT22;55274;43.060;25.618;2023-04-10T09:51:33;18.30;53.40
68354;DHT22;55274;43.060;25.618;2023-04-10T09:54:00;18.10;54.30
68354;DHT22;55274;43.060;25.618;2023-04-10T09:56:26;18.20;54.80
68354;DHT22;55274;43.060;25.618;2023-04-10T09:58:56;18.40;54.30
68354;DHT22;55274;43.060;25.618;2023-04-10T10:01:27;18.00;54.70
68354;DHT22;55274;43.060;25.618;2023-04-10T10:03:54;18.10;55.50
68354;DHT22;55274;43.060;25.618;2023-04-10T10:06:21;18.00;55.40
68354;DHT22;55274;43.060;25.618;2023-04-10T10:08:48;17.70;55.20
68354;DHT22;55274;43.060;25.618;2023-04-10T10:11:18;17.70;55.60
68354;DHT22;55274;43.060;25.618;2023-04-10T10:13:51;17.70;55.70
68354;DHT22;55274;43.060;25.618;2023-04-10T10:17:04;18.00;55.20
68354;DHT22;55274;43.060;25.618;2023-04-10T10:19:34;18.30;55.20
68354;DHT22;55274;43.060;25.618;2023-04-10T10:22:03;18.20;53.10
68354;DHT22;55274;43.060;25.618;2023-04-10T10:24:30;18.40;53.30
68354;DHT22;55274;43.060;25.618;2023-04-10T10:26:58;18.30;52.90
68354;DHT22;55274;43.060;25.618;2023-04-10T10:29:27;18.30;53.40
68354;DHT22;55274;43.060;25.618;2023-04-10T10:31:59;18.40;53.40
68354;DHT22;55274;43.060;25.618;2023-04-10T10:34:25;18.40;52.60
68354;DHT22;55274;43.060;25.618;2023-04-10T10:36:51;18.40;53.50
68354;DHT22;55274;43.060;25.618;2023-04-10T10:42:22;18.70;53.00
68354;DHT22;55274;43.060;25.618;2023-04-10T10:44:51;18.70;52.80
68354;DHT22;55274;43.060;25.618;2023-04-10T10:47:26;18.60;51.80
68354;DHT22;55274;43.060;25.618;2023-04-10T10:52:38;18.60;52.50
68354;DHT22;55274;43.060;25.618;2023-04-10T10:58:08;18.10;53.80
68354;DHT22;55274;43.060;25.618;2023-04-10T11:05:57;18.30;53.30
68354;DHT22;55274;43.060;25.618;2023-04-10T11:13:37;17.80;54.70
68354;DHT22;55274;43.060;25.618;2023-04-10T11:16:05;17.70;55.00
68354;DHT22;55274;43.060;25.618;2023-04-10T11:29:03;16.80;55.90
68354;DHT22;55274;43.060;25.618;2023-04-10T11:31:29;16.60;57.50
68354;DHT22;55274;43.060;25.618;2023-04-10T11:36:24;16.50;58.00
68354;DHT22;55274;43.060;25.618;2023-04-10T11:39:04;16.40;58.70
68354;DHT22;55274;43.060;25.618;2023-04-10T11:41:35;16.30;57.40
68354;DHT22;55274;43.060;25.618;2023-04-10T11:44:04;16.50;55.50
68354;DHT22;55274;43.060;25.618;2023-04-10T11:46:34;16.70;55.70
68354;DHT22;55274;43.060;25.618;2023-04-10T11:49:02;16.90;55.70
68354;DHT22;55274;43.060;25.618;2023-04-10T11:51:28;17.00;53.30
68354;DHT22;55274;43.060;25.618;2023-04-10T11:54:14;17.20;53.50
68354;DHT22;55274;43.060;25.618;2023-04-10T11:56:42;17.40;52.40
68354;DHT22;55274;43.060;25.618;2023-04-10T11:59:09;17.70;51.80
68354;DHT22;55274;43.060;25.618;2023-04-10T12:01:40;17.80;52.20
68354;DHT22;55274;43.060;25.618;2023-04-10T12:04:20;18.00;50.70
68354;DHT22;55274;43.060;25.618;2023-04-10T12:06:48;17.80;50.30
68354;DHT22;55274;43.060;25.618;2023-04-10T12:09:15;17.90;49.80
68354;DHT22;55274;43.060;25.618;2023-04-10T12:12:07;18.10;49.70
68354;DHT22;55274;43.060;25.618;2023-04-10T12:14:37;17.70;50.10
68354;DHT22;55274;43.060;25.618;2023-04-10T12:17:06;17.60;50.40
68354;DHT22;55274;43.060;25.618;2023-04-10T12:19:32;17.40;51.60
68354;DHT22;55274;43.060;25.618;2023-04-10T12:21:59;17.00;53.60
68354;DHT22;55274;43.060;25.618;2023-04-10T12:24:49;16.70;54.80
68354;DHT22;55274;43.060;25.618;2023-04-10T12:29:50;17.40;53.30
68354;DHT22;55274;43.060;25.618;2023-04-10T12:32:16;17.30;54.50
68354;DHT22;55274;43.060;25.618;2023-04-10T12:34:53;17.30;54.40
68354;DHT22;55274;43.060;25.618;2023-04-10T12:37:22;17.50;54.30
68354;DHT22;55274;43.060;25.618;2023-04-10T12:39:47;17.70;54.10
68354;DHT22;55274;43.060;25.618;2023-04-10T12:47:17;17.90;53.60
68354;DHT22;55274;43.060;25.618;2023-04-10T12:50:02;17.80;54.10
68354;DHT22;55274;43.060;25.618;2023-04-10T12:52:28;18.00;55.10
68354;DHT22;55274;43.060;25.618;2023-04-10T12:55:16;17.90;54.70
68354;DHT22;55274;43.060;25.618;2023-04-10T12:57:44;17.90;54.30
68354;DHT22;55274;43.060;25.618;2023-04-10T13:00:12;17.70;54.20
68354;DHT22;55274;43.060;25.618;2023-04-10T13:02:38;17.60;54.90
68354;DHT22;55274;43.060;25.618;2023-04-10T13:05:05;17.70;55.10
68354;DHT22;55274;43.060;25.618;2023-04-10T13:07:31;17.40;54.10
68354;DHT22;55274;43.060;25.618;2023-04-10T13:09:58;17.50;55.00
68354;DHT22;55274;43.060;25.618;2023-04-10T13:12:24;17.50;54.80
68354;DHT22;55274;43.060;25.618;2023-04-10T13:14:53;17.50;54.90
68354;DHT22;55274;43.060;25.618;2023-04-10T13:17:23;17.50;54.60
68354;DHT22;55274;43.060;25.618;2023-04-10T13:19:49;17.40;54.80
68354;DHT22;55274;43.060;25.618;2023-04-10T13:22:15;17.50;54.60
68354;DHT22;55274;43.060;25.618;2023-04-10T13:24:42;17.60;55.00
68354;DHT22;55274;43.060;25.618;2023-04-10T13:27:08;17.60;54.90
68354;DHT22;55274;43.060;25.618;2023-04-10T13:29:34;17.60;54.40
68354;DHT22;55274;43.060;25.618;2023-04-10T13:32:01;17.60;53.30
68354;DHT22;55274;43.060;25.618;2023-04-10T13:34:30;17.40;54.40
68354;DHT22;55274;43.060;25.618;2023-04-10T13:36:56;17.00;54.90
68354;DHT22;55274;43.060;25.618;2023-04-10T13:39:21;17.10;54.60
68354;DHT22;55274;43.060;25.618;2023-04-10T13:41:47;17.10;54.70
68354;DHT22;55274;43.060;25.618;2023-04-10T13:44:13;17.00;55.10
68354;DHT22;55274;43.060;25.618;2023-04-10T13:46:39;16.60;56.00
68354;DHT22;55274;43.060;25.618;2023-04-10T13:49:05;16.20;55.80
68354;DHT22;55274;43.060;25.618;2023-04-10T13:51:30;15.80;57.90
68354;DHT22;55274;43.060;25.618;2023-04-10T13:53:56;15.50;61.80
68354;DHT22;55274;43.060;25.618;2023-04-10T13:56:23;15.30;63.20
68354;DHT22;55274;43.060;25.618;2023-04-10T13:58:49;15.20;64.60
68354;DHT22;55274;43.060;25.618;2023-04-10T14:01:14;15.10;67.50
68354;DHT22;55274;43.060;25.618;2023-04-10T14:03:40;15.20;68.80
68354;DHT22;55274;43.060;25.618;2023-04-10T14:06:06;15.10;67.60
68354;DHT22;55274;43.060;25.618;2023-04-10T14:08:32;15.10;72.60
68354;DHT22;55274;43.060;25.618;2023-04-10T14:10:58;15.10;74.20
68354;DHT22;55274;43.060;25.618;2023-04-10T14:13:23;15.10;78.20
68354;DHT22;55274;43.060;25.618;2023-04-10T14:15:50;15.10;80.40
68354;DHT22;55274;43.060;25.618;2023-04-10T14:18:18;15.10;77.10
68354;DHT22;55274;43.060;25.618;2023-04-10T14:20:44;15.10;83.10
68354;DHT22;55274;43.060;25.618;2023-04-10T14:23:10;15.00;85.00
68354;DHT22;55274;43.060;25.618;2023-04-10T14:25:43;15.00;85.80
68354;DHT22;55274;43.060;25.618;2023-04-10T14:28:09;15.10;81.30
68354;DHT22;55274;43.060;25.618;2023-04-10T14:30:45;15.20;78.90
68354;DHT22;55274;43.060;25.618;2023-04-10T14:33:13;15.20;85.90
68354;DHT22;55274;43.060;25.618;2023-04-10T14:35:39;15.10;83.50
68354;DHT22;55274;43.060;25.618;2023-04-10T14:38:05;15.10;81.90
68354;DHT22;55274;43.060;25.618;2023-04-10T14:40:30;15.10;80.00
68354;DHT22;55274;43.060;25.618;2023-04-10T14:42:56;15.10;79.10
68354;DHT22;55274;43.060;25.618;2023-04-10T14:45:22;15.00;79.90
68354;DHT22;55274;43.060;25.618;2023-04-10T14:47:48;14.80;77.40
68354;DHT22;55274;43.060;25.618;2023-04-10T14:50:14;14.60;70.60
68354;DHT22;55274;43.060;25.618;2023-04-10T14:52:40;14.50;74.10
68354;DHT22;55274;43.060;25.618;2023-04-10T14:55:06;14.50;71.70
68354;DHT22;55274;43.060;25.618;2023-04-10T14:57:31;14.50;73.20
68354;DHT22;55274;43.060;25.618;2023-04-10T14:59:57;14.50;76.10
68354;DHT22;55274;43.060;25.618;2023-04-10T15:02:25;14.50;79.30
68354;DHT22;55274;43.060;25.618;2023-04-10T15:04:51;14.40;82.60
68354;DHT22;55274;43.060;25.618;2023-04-10T15:07:17;14.30;84.40
68354;DHT22;55274;43.060;25.618;2023-04-10T15:09:43;14.40;85.70
68354;DHT22;55274;43.060;25.618;2023-04-10T15:12:09;14.30;89.60
68354;DHT22;55274;43.060;25.618;2023-04-10T15:14:35;14.30;90.10
68354;DHT22;55274;43.060;25.618;2023-04-10T15:17:00;14.30;88.30
68354;DHT22;55274;43.060;25.618;2023-04-10T15:19:26;14.40;89.60
68354;DHT22;55274;43.060;25.618;2023-04-10T15:21:53;14.30;92.90
68354;DHT22;55274;43.060;25.618;2023-04-10T15:24:19;14.20;94.30
68354;DHT22;55274;43.060;25.618;2023-04-10T15:26:45;14.10;95.30
68354;DHT22;55274;43.060;25.618;2023-04-10T15:29:12;14.10;94.00
68354;DHT22;55274;43.060;25.618;2023-04-10T15:31:38;14.10;93.20
68354;DHT22;55274;43.060;25.618;2023-04-10T15:34:03;14.20;92.90
68354;DHT22;55274;43.060;25.618;2023-04-10T15:36:29;14.20;90.90
68354;DHT22;55274;43.060;25.618;2023-04-10T15:38:57;14.20;91.70
68354;DHT22;55274;43.060;25.618;2023-04-10T15:41:24;14.10;89.90
68354;DHT22;55274;43.060;25.618;2023-04-10T15:43:52;14.10;87.20
68354;DHT22;55274;43.060;25.618;2023-04-10T15:46:18;14.00;85.80
68354;DHT22;55274;43.060;25.618;2023-04-10T15:48:44;13.90;85.80
68354;DHT22;55274;43.060;25.618;2023-04-10T15:51:12;13.90;86.20
68354;DHT22;55274;43.060;25.618;2023-04-10T15:53:38;13.70;85.70
68354;DHT22;55274;43.060;25.618;2023-04-10T15:56:04;13.60;85.70
68354;DHT22;55274;43.060;25.618;2023-04-10T15:58:31;13.60;85.80
68354;DHT22;55274;43.060;25.618;2023-04-10T16:00:57;13.50;86.30
68354;DHT22;55274;43.060;25.618;2023-04-10T16:03:23;13.50;85.50
68354;DHT22;55274;43.060;25.618;2023-04-10T16:05:49;13.50;85.60
68354;DHT22;55274;43.060;25.618;2023-04-10T16:08:15;13.50;86.10
68354;DHT22;55274;43.060;25.618;2023-04-10T16:10:41;13.40;86.20
68354;DHT22;55274;43.060;25.618;2023-04-10T16:13:07;13.40;87.10
68354;DHT22;55274;43.060;25.618;2023-04-10T16:15:34;13.40;87.80
68354;DHT22;55274;43.060;25.618;2023-04-10T16:18:02;13.40;87.20
68354;DHT22;55274;43.060;25.618;2023-04-10T16:20:28;13.50;87.60
68354;DHT22;55274;43.060;25.618;2023-04-10T16:22:55;13.40;87.10
68354;DHT22;55274;43.060;25.618;2023-04-10T16:25:22;13.40;87.80
68354;DHT22;55274;43.060;25.618;2023-04-10T16:27:49;13.40;87.60
68354;DHT22;55274;43.060;25.618;2023-04-10T16:30:14;13.40;88.30